sensor_id;sensor_type;location;lat;lon;timestamp;noise_LAeq;noise_LA_min;noise_LA_max;noise_LA01;noise_LA95
67320;Laerm;57665;51.436;5.978;2022-08-05T00:00:01;41.29;39.67;42.43;;
67320;Laerm;57665;51.436;5.978;2022-08-05T00:00:11;41.39;40.25;42.60;;
67320;Laerm;57665;51.436;5.978;2022-08-05T00:00:24;41.38;39.67;42.67;;
67320;Laerm;57665;51.436;5.978;2022-08-05T00:00:44;41.32;40.01;42.62;;
67320;Laerm;57665;51.436;5.978;2022-08-05T00:01:15;41.42;40.12;42.64;;
67320;Laerm;57665;51.436;5.978;2022-08-05T00:01:30;41.42;39.77;42.69;;
67320;Laerm;57665;51.436;5.978;2022-08-05T00:01:47;41.23;39.78;42.31;;
67320;Laerm;57665;51.436;5.978;2022-08-05T00:02:03;41.34;40.12;42.81;;
67320;Laerm;57665;51.436;5.978;2022-08-05T00:02:16;41.33;39.80;42.74;;
67320;Laerm;57665;51.436;5.978;2022-08-05T00:02:28;41.33;40.03;42.72;;
67320;Laerm;57665;51.436;5.978;2022-08-05T00:02:40;41.36;40.16;42.48;;
67320;Laerm;57665;51.436;5.978;2022-08-05T00:02:54;41.28;40.18;42.54;;
67320;Laerm;57665;51.436;5.978;2022-08-05T00:03:06;41.26;40.03;42.50;;
67320;Laerm;57665;51.436;5.978;2022-08-05T00:03:18;41.40;40.00;42.58;;
67320;Laerm;57665;51.436;5.978;2022-08-05T00:03:31;41.43;40.26;42.89;;
67320;Laerm;57665;51.436;5.978;2022-08-05T00:03:44;41.47;40.07;43.09;;
67320;Laerm;57665;51.436;5.978;2022-08-05T00:03:56;41.46;40.02;42.62;;
67320;Laerm;57665;51.436;5.978;2022-08-05T00:04:08;41.46;39.83;42.55;;
67320;Laerm;57665;51.436;5.978;2022-08-05T00:04:19;41.48;40.03;42.87;;
67320;Laerm;57665;51.436;5.978;2022-08-05T00:04:30;41.50;40.22;43.21;;
67320;Laerm;57665;51.436;5.978;2022-08-05T00:04:41;41.50;40.21;42.61;;
67320;Laerm;57665;51.436;5.978;2022-08-05T00:04:52;41.39;40.05;42.39;;
67320;Laerm;57665;51.436;5.978;2022-08-05T00:05:04;41.49;40.05;42.87;;
67320;Laerm;57665;51.436;5.978;2022-08-05T00:05:15;41.34;39.81;42.58;;
67320;Laerm;57665;51.436;5.978;2022-08-05T00:05:26;41.37;39.80;42.59;;
67320;Laerm;57665;51.436;5.978;2022-08-05T00:05:38;41.47;39.83;42.75;;
67320;Laerm;57665;51.436;5.978;2022-08-05T00:05:49;41.35;40.08;42.97;;
67320;Laerm;57665;51.436;5.978;2022-08-05T00:06:00;41.46;40.26;42.57;;
67320;Laerm;57665;51.436;5.978;2022-08-05T00:06:11;41.45;39.90;42.91;;
67320;Laerm;57665;51.436;5.978;2022-08-05T00:06:22;41.42;40.26;42.56;;
67320;Laerm;57665;51.436;5.978;2022-08-05T00:06:33;41.46;40.28;42.49;;
67320;Laerm;57665;51.436;5.978;2022-08-05T00:06:44;41.43;40.21;42.90;;
67320;Laerm;57665;51.436;5.978;2022-08-05T00:06:54;41.60;40.44;43.09;;
67320;Laerm;57665;51.436;5.978;2022-08-05T00:07:05;41.57;40.07;42.79;;
67320;Laerm;57665;51.436;5.978;2022-08-05T00:07:16;41.54;40.35;42.70;;
67320;Laerm;57665;51.436;5.978;2022-08-05T00:07:26;41.51;40.14;42.84;;
67320;Laerm;57665;51.436;5.978;2022-08-05T00:07:37;41.44;40.10;43.09;;
67320;Laerm;57665;51.436;5.978;2022-08-05T00:07:47;41.35;39.89;42.76;;
67320;Laerm;57665;51.436;5.978;2022-08-05T00:07:58;41.37;40.08;42.55;;
67320;Laerm;57665;51.436;5.978;2022-08-05T00:08:08;41.35;40.07;42.54;;
67320;Laerm;57665;51.436;5.978;2022-08-05T00:08:19;41.40;40.23;42.95;;
67320;Laerm;57665;51.436;5.978;2022-08-05T00:08:30;41.49;40.00;42.62;;
67320;Laerm;57665;51.436;5.978;2022-08-05T00:08:41;41.45;40.26;42.59;;
67320;Laerm;57665;51.436;5.978;2022-08-05T00:08:52;41.39;40.04;42.84;;
67320;Laerm;57665;51.436;5.978;2022-08-05T00:09:03;41.51;40.26;42.61;;
67320;Laerm;57665;51.436;5.978;2022-08-05T00:09:14;41.43;40.26;43.01;;
67320;Laerm;57665;51.436;5.978;2022-08-05T00:09:25;41.44;40.30;42.57;;
67320;Laerm;57665;51.436;5.978;2022-08-05T00:09:36;41.41;40.13;42.79;;
67320;Laerm;57665;51.436;5.978;2022-08-05T00:09:46;41.48;40.17;42.81;;
67320;Laerm;57665;51.436;5.978;2022-08-05T00:09:57;41.55;40.06;42.80;;
67320;Laerm;57665;51.436;5.978;2022-08-05T00:10:08;41.54;40.40;43.13;;
67320;Laerm;57665;51.436;5.978;2022-08-05T00:10:19;41.55;40.35;43.00;;
67320;Laerm;57665;51.436;5.978;2022-08-05T00:10:29;41.56;39.96;42.80;;
67320;Laerm;57665;51.436;5.978;2022-08-05T00:10:40;41.54;40.51;42.64;;
67320;Laerm;57665;51.436;5.978;2022-08-05T00:10:50;41.54;40.41;42.79;;
67320;Laerm;57665;51.436;5.978;2022-08-05T00:11:02;41.45;40.32;42.56;;
67320;Laerm;57665;51.436;5.978;2022-08-05T00:11:13;41.53;40.09;42.90;;
67320;Laerm;57665;51.436;5.978;2022-08-05T00:11:24;41.74;40.31;46.21;;
67320;Laerm;57665;51.436;5.978;2022-08-05T00:11:34;41.60;40.30;43.04;;
67320;Laerm;57665;51.436;5.978;2022-08-05T00:11:45;41.67;40.01;44.45;;
67320;Laerm;57665;51.436;5.978;2022-08-05T00:11:56;41.63;40.32;44.26;;
67320;Laerm;57665;51.436;5.978;2022-08-05T00:12:06;41.57;40.29;42.71;;
67320;Laerm;57665;51.436;5.978;2022-08-05T00:12:17;41.67;40.24;43.03;;
67320;Laerm;57665;51.436;5.978;2022-08-05T00:12:28;41.59;40.40;42.84;;
67320;Laerm;57665;51.436;5.978;2022-08-05T00:12:38;41.56;40.11;43.22;;
67320;Laerm;57665;51.436;5.978;2022-08-05T00:12:48;41.67;40.54;43.05;;
67320;Laerm;57665;51.436;5.978;2022-08-05T00:12:59;41.60;40.43;42.73;;
67320;Laerm;57665;51.436;5.978;2022-08-05T00:13:09;41.57;40.15;43.01;;
67320;Laerm;57665;51.436;5.978;2022-08-05T00:13:19;41.65;40.13;42.82;;
67320;Laerm;57665;51.436;5.978;2022-08-05T00:13:33;41.60;40.27;42.66;;
67320;Laerm;57665;51.436;5.978;2022-08-05T00:13:44;41.63;40.39;42.78;;
67320;Laerm;57665;51.436;5.978;2022-08-05T00:13:54;41.64;40.37;42.90;;
67320;Laerm;57665;51.436;5.978;2022-08-05T00:14:04;41.54;40.39;42.70;;
67320;Laerm;57665;51.436;5.978;2022-08-05T00:14:15;41.57;40.43;42.95;;
67320;Laerm;57665;51.436;5.978;2022-08-05T00:14:25;41.63;39.83;42.69;;
67320;Laerm;57665;51.436;5.978;2022-08-05T00:14:36;41.57;40.25;42.78;;
67320;Laerm;57665;51.436;5.978;2022-08-05T00:14:46;41.60;40.56;42.99;;
67320;Laerm;57665;51.436;5.978;2022-08-05T00:14:56;41.64;40.52;43.10;;
67320;Laerm;57665;51.436;5.978;2022-08-05T00:15:07;41.61;40.41;42.45;;
67320;Laerm;57665;51.436;5.978;2022-08-05T00:15:18;41.61;40.46;42.94;;
67320;Laerm;57665;51.436;5.978;2022-08-05T00:15:29;41.69;40.22;43.08;;
67320;Laerm;57665;51.436;5.978;2022-08-05T00:15:39;41.66;40.52;42.79;;
67320;Laerm;57665;51.436;5.978;2022-08-05T00:15:52;41.65;40.17;42.75;;
67320;Laerm;57665;51.436;5.978;2022-08-05T00:16:03;41.59;39.82;43.08;;
67320;Laerm;57665;51.436;5.978;2022-08-05T00:16:14;41.60;40.43;42.77;;
67320;Laerm;57665;51.436;5.978;2022-08-05T00:16:24;41.62;40.25;42.83;;
67320;Laerm;57665;51.436;5.978;2022-08-05T00:16:34;41.62;40.44;43.25;;
67320;Laerm;57665;51.436;5.978;2022-08-05T00:16:44;41.71;40.49;42.67;;
67320;Laerm;57665;51.436;5.978;2022-08-05T00:16:55;41.70;40.45;43.05;;
67320;Laerm;57665;51.436;5.978;2022-08-05T00:17:05;41.59;40.35;42.65;;
67320;Laerm;57665;51.436;5.978;2022-08-05T00:17:15;41.53;40.29;42.91;;
67320;Laerm;57665;51.436;5.978;2022-08-05T00:17:25;41.56;40.33;43.24;;
67320;Laerm;57665;51.436;5.978;2022-08-05T00:17:35;41.59;40.49;42.84;;
67320;Laerm;57665;51.436;5.978;2022-08-05T00:17:46;41.57;40.16;42.56;;
67320;Laerm;57665;51.436;5.978;2022-08-05T00:17:56;41.64;40.40;43.20;;
67320;Laerm;57665;51.436;5.978;2022-08-05T00:18:06;41.63;39.96;42.97;;
67320;Laerm;57665;51.436;5.978;2022-08-05T00:18:16;41.61;40.22;42.96;;
67320;Laerm;57665;51.436;5.978;2022-08-05T00:18:27;41.62;40.17;42.98;;
67320;Laerm;57665;51.436;5.978;2022-08-05T00:18:37;41.59;40.39;42.97;;
67320;Laerm;57665;51.436;5.978;2022-08-05T00:18:48;41.57;39.95;42.66;;
67320;Laerm;57665;51.436;5.978;2022-08-05T00:18:58;41.73;40.56;43.01;;
67320;Laerm;57665;51.436;5.978;2022-08-05T00:19:08;41.60;40.40;42.88;;
67320;Laerm;57665;51.436;5.978;2022-08-05T00:19:19;41.61;40.39;43.03;;
67320;Laerm;57665;51.436;5.978;2022-08-05T00:19:30;41.65;40.44;43.21;;
67320;Laerm;57665;51.436;5.978;2022-08-05T00:19:40;41.65;40.21;43.09;;
67320;Laerm;57665;51.436;5.978;2022-08-05T00:19:50;41.61;40.18;42.78;;
67320;Laerm;57665;51.436;5.978;2022-08-05T00:20:01;41.61;40.33;42.78;;
67320;Laerm;57665;51.436;5.978;2022-08-05T00:20:11;41.62;40.39;42.79;;
67320;Laerm;57665;51.436;5.978;2022-08-05T00:20:21;41.64;40.51;42.88;;
67320;Laerm;57665;51.436;5.978;2022-08-05T00:20:31;41.68;40.47;42.97;;
67320;Laerm;57665;51.436;5.978;2022-08-05T00:20:41;41.67;40.57;42.85;;
67320;Laerm;57665;51.436;5.978;2022-08-05T00:20:52;41.58;40.46;42.68;;
67320;Laerm;57665;51.436;5.978;2022-08-05T00:21:02;41.63;40.45;42.62;;
67320;Laerm;57665;51.436;5.978;2022-08-05T00:21:14;41.59;40.28;42.67;;
67320;Laerm;57665;51.436;5.978;2022-08-05T00:21:24;41.62;40.22;42.79;;
67320;Laerm;57665;51.436;5.978;2022-08-05T00:21:35;41.58;40.02;42.68;;
67320;Laerm;57665;51.436;5.978;2022-08-05T00:21:45;41.62;40.34;42.95;;
67320;Laerm;57665;51.436;5.978;2022-08-05T00:21:56;41.67;40.36;42.82;;
67320;Laerm;57665;51.436;5.978;2022-08-05T00:22:07;41.65;40.43;42.99;;
67320;Laerm;57665;51.436;5.978;2022-08-05T00:22:17;41.60;40.29;43.42;;
67320;Laerm;57665;51.436;5.978;2022-08-05T00:22:27;41.56;40.19;42.79;;
67320;Laerm;57665;51.436;5.978;2022-08-05T00:22:38;41.54;40.04;43.19;;
67320;Laerm;57665;51.436;5.978;2022-08-05T00:22:48;41.49;40.22;42.44;;
67320;Laerm;57665;51.436;5.978;2022-08-05T00:22:58;41.57;40.17;43.30;;
67320;Laerm;57665;51.436;5.978;2022-08-05T00:23:08;41.52;39.88;43.18;;
67320;Laerm;57665;51.436;5.978;2022-08-05T00:23:19;41.62;40.28;43.13;;
67320;Laerm;57665;51.436;5.978;2022-08-05T00:23:30;41.61;40.52;42.75;;
67320;Laerm;57665;51.436;5.978;2022-08-05T00:23:41;41.56;40.06;42.85;;
67320;Laerm;57665;51.436;5.978;2022-08-05T00:23:52;41.55;40.50;42.96;;
67320;Laerm;57665;51.436;5.978;2022-08-05T00:24:03;41.55;40.40;42.72;;
67320;Laerm;57665;51.436;5.978;2022-08-05T00:24:13;41.58;40.35;42.76;;
67320;Laerm;57665;51.436;5.978;2022-08-05T00:24:24;41.48;39.84;42.97;;
67320;Laerm;57665;51.436;5.978;2022-08-05T00:24:34;41.41;40.22;42.59;;
67320;Laerm;57665;51.436;5.978;2022-08-05T00:24:44;41.46;40.26;42.76;;
67320;Laerm;57665;51.436;5.978;2022-08-05T00:24:55;41.52;40.27;42.64;;
67320;Laerm;57665;51.436;5.978;2022-08-05T00:25:06;41.53;40.24;42.96;;
67320;Laerm;57665;51.436;5.978;2022-08-05T00:25:16;41.53;40.05;42.83;;
67320;Laerm;57665;51.436;5.978;2022-08-05T00:25:27;41.54;40.29;42.80;;
67320;Laerm;57665;51.436;5.978;2022-08-05T00:25:37;41.59;40.17;42.87;;
67320;Laerm;57665;51.436;5.978;2022-08-05T00:25:48;41.68;40.36;43.47;;
67320;Laerm;57665;51.436;5.978;2022-08-05T00:25:58;41.63;40.46;42.67;;
67320;Laerm;57665;51.436;5.978;2022-08-05T00:26:09;41.61;40.48;42.82;;
67320;Laerm;57665;51.436;5.978;2022-08-05T00:26:21;41.59;40.23;42.98;;
67320;Laerm;57665;51.436;5.978;2022-08-05T00:26:32;41.56;40.33;42.86;;
67320;Laerm;57665;51.436;5.978;2022-08-05T00:26:42;41.55;39.68;42.69;;
67320;Laerm;57665;51.436;5.978;2022-08-05T00:26:54;41.57;40.17;42.61;;
67320;Laerm;57665;51.436;5.978;2022-08-05T00:27:04;41.56;40.29;42.88;;
67320;Laerm;57665;51.436;5.978;2022-08-05T00:27:16;41.59;40.23;43.10;;
67320;Laerm;57665;51.436;5.978;2022-08-05T00:27:27;41.61;40.13;43.03;;
67320;Laerm;57665;51.436;5.978;2022-08-05T00:27:40;41.64;40.42;43.18;;
67320;Laerm;57665;51.436;5.978;2022-08-05T00:27:51;41.67;40.33;42.81;;
67320;Laerm;57665;51.436;5.978;2022-08-05T00:28:02;41.69;40.23;43.16;;
67320;Laerm;57665;51.436;5.978;2022-08-05T00:28:13;41.76;40.62;42.99;;
67320;Laerm;57665;51.436;5.978;2022-08-05T00:28:24;41.62;40.14;42.88;;
67320;Laerm;57665;51.436;5.978;2022-08-05T00:28:35;41.65;40.00;42.77;;
67320;Laerm;57665;51.436;5.978;2022-08-05T00:28:45;41.59;40.02;42.61;;
67320;Laerm;57665;51.436;5.978;2022-08-05T00:28:56;41.69;40.70;43.04;;
67320;Laerm;57665;51.436;5.978;2022-08-05T00:29:06;41.60;40.08;42.86;;
67320;Laerm;57665;51.436;5.978;2022-08-05T00:29:17;41.66;40.41;42.98;;
67320;Laerm;57665;51.436;5.978;2022-08-05T00:29:27;41.64;40.49;42.89;;
67320;Laerm;57665;51.436;5.978;2022-08-05T00:29:38;41.62;40.00;42.90;;
67320;Laerm;57665;51.436;5.978;2022-08-05T00:29:48;41.55;40.23;42.80;;
67320;Laerm;57665;51.436;5.978;2022-08-05T00:29:59;41.65;40.21;42.78;;
67320;Laerm;57665;51.436;5.978;2022-08-05T00:30:09;41.65;40.52;43.09;;
67320;Laerm;57665;51.436;5.978;2022-08-05T00:30:20;41.71;40.47;42.83;;
67320;Laerm;57665;51.436;5.978;2022-08-05T00:30:30;41.66;40.34;43.30;;
67320;Laerm;57665;51.436;5.978;2022-08-05T00:30:40;41.54;40.12;42.79;;
67320;Laerm;57665;51.436;5.978;2022-08-05T00:30:50;41.64;40.50;42.82;;
67320;Laerm;57665;51.436;5.978;2022-08-05T00:31:01;41.56;39.95;42.97;;
67320;Laerm;57665;51.436;5.978;2022-08-05T00:31:11;41.63;40.35;42.92;;
67320;Laerm;57665;51.436;5.978;2022-08-05T00:31:21;41.50;40.10;42.73;;
67320;Laerm;57665;51.436;5.978;2022-08-05T00:31:32;41.51;40.29;42.66;;
67320;Laerm;57665;51.436;5.978;2022-08-05T00:31:42;41.45;40.32;42.61;;
67320;Laerm;57665;51.436;5.978;2022-08-05T00:31:52;41.55;40.06;42.57;;
67320;Laerm;57665;51.436;5.978;2022-08-05T00:32:03;41.57;40.33;42.81;;
67320;Laerm;57665;51.436;5.978;2022-08-05T00:32:14;41.56;40.26;43.40;;
67320;Laerm;57665;51.436;5.978;2022-08-05T00:32:24;41.55;40.24;42.99;;
67320;Laerm;57665;51.436;5.978;2022-08-05T00:32:35;41.50;40.00;42.71;;
67320;Laerm;57665;51.436;5.978;2022-08-05T00:32:45;41.55;40.23;42.99;;
67320;Laerm;57665;51.436;5.978;2022-08-05T00:32:55;41.62;40.04;42.98;;
67320;Laerm;57665;51.436;5.978;2022-08-05T00:33:05;41.60;40.35;42.78;;
67320;Laerm;57665;51.436;5.978;2022-08-05T00:33:16;41.63;40.07;42.79;;
67320;Laerm;57665;51.436;5.978;2022-08-05T00:33:26;41.68;40.40;43.16;;
67320;Laerm;57665;51.436;5.978;2022-08-05T00:33:36;41.62;40.34;42.91;;
67320;Laerm;57665;51.436;5.978;2022-08-05T00:33:47;41.62;40.17;42.86;;
67320;Laerm;57665;51.436;5.978;2022-08-05T00:33:57;41.56;40.40;42.90;;
67320;Laerm;57665;51.436;5.978;2022-08-05T00:34:07;41.59;40.25;42.92;;
67320;Laerm;57665;51.436;5.978;2022-08-05T00:34:17;41.71;40.33;43.34;;
67320;Laerm;57665;51.436;5.978;2022-08-05T00:34:27;41.55;40.30;42.97;;
67320;Laerm;57665;51.436;5.978;2022-08-05T00:34:44;41.64;40.56;43.07;;
67320;Laerm;57665;51.436;5.978;2022-08-05T00:34:54;41.63;40.21;43.12;;
67320;Laerm;57665;51.436;5.978;2022-08-05T00:35:04;41.62;40.16;43.00;;
67320;Laerm;57665;51.436;5.978;2022-08-05T00:35:15;41.69;40.37;42.73;;
67320;Laerm;57665;51.436;5.978;2022-08-05T00:35:25;41.56;40.43;42.60;;
67320;Laerm;57665;51.436;5.978;2022-08-05T00:35:35;41.57;40.20;42.73;;
67320;Laerm;57665;51.436;5.978;2022-08-05T00:35:45;41.61;40.60;42.85;;
67320;Laerm;57665;51.436;5.978;2022-08-05T00:35:56;41.59;40.55;42.78;;
67320;Laerm;57665;51.436;5.978;2022-08-05T00:36:06;41.59;40.42;43.12;;
67320;Laerm;57665;51.436;5.978;2022-08-05T00:36:16;41.59;40.17;42.82;;
67320;Laerm;57665;51.436;5.978;2022-08-05T00:36:27;41.66;40.21;43.13;;
67320;Laerm;57665;51.436;5.978;2022-08-05T00:36:38;41.66;40.39;42.83;;
67320;Laerm;57665;51.436;5.978;2022-08-05T00:36:48;41.59;40.20;42.80;;
67320;Laerm;57665;51.436;5.978;2022-08-05T00:36:59;41.61;40.13;42.70;;
67320;Laerm;57665;51.436;5.978;2022-08-05T00:37:09;41.65;40.16;42.88;;
67320;Laerm;57665;51.436;5.978;2022-08-05T00:37:20;41.62;40.31;42.85;;
67320;Laerm;57665;51.436;5.978;2022-08-05T00:37:31;41.63;40.15;43.26;;
67320;Laerm;57665;51.436;5.978;2022-08-05T00:37:41;41.65;40.50;42.82;;
67320;Laerm;57665;51.436;5.978;2022-08-05T00:37:52;41.74;40.04;43.08;;
67320;Laerm;57665;51.436;5.978;2022-08-05T00:38:02;41.69;40.10;43.03;;
67320;Laerm;57665;51.436;5.978;2022-08-05T00:38:13;41.72;40.33;43.07;;
67320;Laerm;57665;51.436;5.978;2022-08-05T00:38:23;41.67;40.47;43.09;;
67320;Laerm;57665;51.436;5.978;2022-08-05T00:38:35;41.66;40.23;42.86;;
67320;Laerm;57665;51.436;5.978;2022-08-05T00:38:45;41.69;40.33;42.82;;
67320;Laerm;57665;51.436;5.978;2022-08-05T00:38:56;41.73;40.54;42.85;;
67320;Laerm;57665;51.436;5.978;2022-08-05T00:39:07;41.69;40.04;43.20;;
67320;Laerm;57665;51.436;5.978;2022-08-05T00:39:18;41.81;40.53;43.23;;
67320;Laerm;57665;51.436;5.978;2022-08-05T00:39:29;41.75;40.54;42.95;;
67320;Laerm;57665;51.436;5.978;2022-08-05T00:39:39;41.77;40.51;43.01;;
67320;Laerm;57665;51.436;5.978;2022-08-05T00:39:51;41.73;40.39;43.01;;
67320;Laerm;57665;51.436;5.978;2022-08-05T00:40:02;41.79;40.59;43.14;;
67320;Laerm;57665;51.436;5.978;2022-08-05T00:40:13;41.76;40.49;43.13;;
67320;Laerm;57665;51.436;5.978;2022-08-05T00:40:24;41.82;40.59;43.30;;
67320;Laerm;57665;51.436;5.978;2022-08-05T00:40:44;41.77;40.44;43.02;;
67320;Laerm;57665;51.436;5.978;2022-08-05T00:40:56;41.78;40.46;43.33;;
67320;Laerm;57665;51.436;5.978;2022-08-05T00:41:07;41.74;40.50;43.20;;
67320;Laerm;57665;51.436;5.978;2022-08-05T00:41:30;41.77;40.67;43.15;;
67320;Laerm;57665;51.436;5.978;2022-08-05T00:41:44;41.80;40.01;43.31;;
67320;Laerm;57665;51.436;5.978;2022-08-05T00:41:55;41.80;40.63;43.19;;
67320;Laerm;57665;51.436;5.978;2022-08-05T00:42:05;41.83;40.49;44.46;;
67320;Laerm;57665;51.436;5.978;2022-08-05T00:42:28;41.74;40.34;43.11;;
67320;Laerm;57665;51.436;5.978;2022-08-05T00:42:39;41.80;40.47;43.33;;
67320;Laerm;57665;51.436;5.978;2022-08-05T00:42:50;41.78;40.48;43.03;;
67320;Laerm;57665;51.436;5.978;2022-08-05T00:43:01;41.66;40.06;43.21;;
67320;Laerm;57665;51.436;5.978;2022-08-05T00:43:11;41.78;40.30;42.92;;
67320;Laerm;57665;51.436;5.978;2022-08-05T00:43:22;41.72;40.59;43.39;;
67320;Laerm;57665;51.436;5.978;2022-08-05T00:43:33;41.73;40.53;43.10;;
67320;Laerm;57665;51.436;5.978;2022-08-05T00:43:43;41.82;40.23;42.95;;
67320;Laerm;57665;51.436;5.978;2022-08-05T00:43:56;41.75;40.34;43.20;;
67320;Laerm;57665;51.436;5.978;2022-08-05T00:44:06;41.67;40.32;42.87;;
67320;Laerm;57665;51.436;5.978;2022-08-05T00:44:17;41.69;40.31;42.91;;
67320;Laerm;57665;51.436;5.978;2022-08-05T00:44:27;41.77;40.49;42.85;;
67320;Laerm;57665;51.436;5.978;2022-08-05T00:44:37;41.76;40.29;42.93;;
67320;Laerm;57665;51.436;5.978;2022-08-05T00:44:48;41.67;40.38;43.15;;
67320;Laerm;57665;51.436;5.978;2022-08-05T00:44:59;41.64;40.24;42.79;;
67320;Laerm;57665;51.436;5.978;2022-08-05T00:45:10;41.70;40.36;42.97;;
67320;Laerm;57665;51.436;5.978;2022-08-05T00:45:20;41.76;40.61;43.23;;
67320;Laerm;57665;51.436;5.978;2022-08-05T00:45:31;41.71;40.63;42.81;;
67320;Laerm;57665;51.436;5.978;2022-08-05T00:45:42;41.73;40.09;43.07;;
67320;Laerm;57665;51.436;5.978;2022-08-05T00:45:53;41.79;40.63;42.95;;
67320;Laerm;57665;51.436;5.978;2022-08-05T00:46:04;41.74;40.00;43.37;;
67320;Laerm;57665;51.436;5.978;2022-08-05T00:46:15;41.77;40.77;43.01;;
67320;Laerm;57665;51.436;5.978;2022-08-05T00:46:25;41.73;40.52;43.11;;
67320;Laerm;57665;51.436;5.978;2022-08-05T00:46:36;41.76;40.50;43.11;;
67320;Laerm;57665;51.436;5.978;2022-08-05T00:46:47;41.78;40.49;43.09;;
67320;Laerm;57665;51.436;5.978;2022-08-05T00:46:57;41.71;40.04;42.97;;
67320;Laerm;57665;51.436;5.978;2022-08-05T00:47:08;41.67;40.14;42.82;;
67320;Laerm;57665;51.436;5.978;2022-08-05T00:47:19;41.71;40.47;42.83;;
67320;Laerm;57665;51.436;5.978;2022-08-05T00:47:29;41.76;40.05;43.03;;
67320;Laerm;57665;51.436;5.978;2022-08-05T00:47:39;41.73;40.45;42.94;;
67320;Laerm;57665;51.436;5.978;2022-08-05T00:47:50;41.71;40.21;42.96;;
67320;Laerm;57665;51.436;5.978;2022-08-05T00:48:01;41.73;40.48;43.01;;
67320;Laerm;57665;51.436;5.978;2022-08-05T00:48:16;41.78;40.01;43.14;;
67320;Laerm;57665;51.436;5.978;2022-08-05T00:48:26;41.71;40.47;42.84;;
67320;Laerm;57665;51.436;5.978;2022-08-05T00:48:37;41.70;40.48;42.75;;
67320;Laerm;57665;51.436;5.978;2022-08-05T00:48:48;41.66;40.16;43.05;;
67320;Laerm;57665;51.436;5.978;2022-08-05T00:48:59;41.81;40.51;43.53;;
67320;Laerm;57665;51.436;5.978;2022-08-05T00:49:09;41.75;40.41;42.77;;
67320;Laerm;57665;51.436;5.978;2022-08-05T00:49:20;41.72;40.40;43.16;;
67320;Laerm;57665;51.436;5.978;2022-08-05T00:49:31;41.70;40.54;43.00;;
67320;Laerm;57665;51.436;5.978;2022-08-05T00:49:41;41.81;40.20;43.03;;
67320;Laerm;57665;51.436;5.978;2022-08-05T00:49:52;41.87;40.60;43.08;;
67320;Laerm;57665;51.436;5.978;2022-08-05T00:50:02;41.75;40.20;43.22;;
67320;Laerm;57665;51.436;5.978;2022-08-05T00:50:12;41.77;40.36;43.16;;
67320;Laerm;57665;51.436;5.978;2022-08-05T00:50:22;41.69;40.25;43.20;;
67320;Laerm;57665;51.436;5.978;2022-08-05T00:50:33;41.75;40.36;42.88;;
67320;Laerm;57665;51.436;5.978;2022-08-05T00:50:45;41.86;40.57;43.11;;
67320;Laerm;57665;51.436;5.978;2022-08-05T00:50:55;41.85;40.66;42.95;;
67320;Laerm;57665;51.436;5.978;2022-08-05T00:51:05;41.88;40.44;42.94;;
67320;Laerm;57665;51.436;5.978;2022-08-05T00:51:16;41.92;40.42;43.28;;
67320;Laerm;57665;51.436;5.978;2022-08-05T00:51:26;41.85;40.39;43.30;;
67320;Laerm;57665;51.436;5.978;2022-08-05T00:51:36;41.79;40.38;42.85;;
67320;Laerm;57665;51.436;5.978;2022-08-05T00:51:47;41.70;40.49;42.88;;
67320;Laerm;57665;51.436;5.978;2022-08-05T00:51:57;41.80;40.54;43.03;;
67320;Laerm;57665;51.436;5.978;2022-08-05T00:52:07;41.88;40.60;43.21;;
67320;Laerm;57665;51.436;5.978;2022-08-05T00:52:18;41.78;40.12;42.78;;
67320;Laerm;57665;51.436;5.978;2022-08-05T00:52:28;41.72;40.45;42.99;;
67320;Laerm;57665;51.436;5.978;2022-08-05T00:52:40;41.70;40.46;42.81;;
67320;Laerm;57665;51.436;5.978;2022-08-05T00:52:50;41.77;40.43;42.99;;
67320;Laerm;57665;51.436;5.978;2022-08-05T00:53:00;41.76;40.18;43.27;;
67320;Laerm;57665;51.436;5.978;2022-08-05T00:53:10;41.71;40.17;43.03;;
67320;Laerm;57665;51.436;5.978;2022-08-05T00:53:21;41.68;40.36;43.07;;
67320;Laerm;57665;51.436;5.978;2022-08-05T00:53:32;41.71;40.41;43.47;;
67320;Laerm;57665;51.436;5.978;2022-08-05T00:53:42;41.74;40.31;42.98;;
67320;Laerm;57665;51.436;5.978;2022-08-05T00:53:52;41.68;40.62;42.80;;
67320;Laerm;57665;51.436;5.978;2022-08-05T00:54:02;41.64;40.42;42.85;;
67320;Laerm;57665;51.436;5.978;2022-08-05T00:54:13;41.64;40.39;42.75;;
67320;Laerm;57665;51.436;5.978;2022-08-05T00:54:23;41.72;40.47;42.78;;
67320;Laerm;57665;51.436;5.978;2022-08-05T00:54:33;41.77;40.70;43.04;;
67320;Laerm;57665;51.436;5.978;2022-08-05T00:54:43;41.74;40.13;42.87;;
67320;Laerm;57665;51.436;5.978;2022-08-05T00:54:53;41.70;40.51;43.16;;
67320;Laerm;57665;51.436;5.978;2022-08-05T00:55:04;41.74;40.49;42.98;;
67320;Laerm;57665;51.436;5.978;2022-08-05T00:55:14;41.78;40.32;43.20;;
67320;Laerm;57665;51.436;5.978;2022-08-05T00:55:24;41.85;40.57;43.01;;
67320;Laerm;57665;51.436;5.978;2022-08-05T00:55:35;41.75;40.44;42.91;;
67320;Laerm;57665;51.436;5.978;2022-08-05T00:55:45;41.78;40.27;43.18;;
67320;Laerm;57665;51.436;5.978;2022-08-05T00:55:56;41.78;40.63;43.02;;
67320;Laerm;57665;51.436;5.978;2022-08-05T00:56:06;41.82;40.61;42.97;;
67320;Laerm;57665;51.436;5.978;2022-08-05T00:56:17;41.75;40.48;43.07;;
67320;Laerm;57665;51.436;5.978;2022-08-05T00:56:27;41.77;40.35;43.01;;
67320;Laerm;57665;51.436;5.978;2022-08-05T00:56:37;41.76;40.36;43.07;;
67320;Laerm;57665;51.436;5.978;2022-08-05T00:56:47;41.68;40.56;42.99;;
67320;Laerm;57665;51.436;5.978;2022-08-05T00:56:58;41.70;40.23;42.91;;
67320;Laerm;57665;51.436;5.978;2022-08-05T00:57:08;41.73;40.26;43.44;;
67320;Laerm;57665;51.436;5.978;2022-08-05T00:57:18;41.71;40.28;43.09;;
67320;Laerm;57665;51.436;5.978;2022-08-05T00:57:28;41.76;40.45;42.79;;
67320;Laerm;57665;51.436;5.978;2022-08-05T00:57:39;41.75;40.31;42.91;;
67320;Laerm;57665;51.436;5.978;2022-08-05T00:57:49;41.78;40.36;42.92;;
67320;Laerm;57665;51.436;5.978;2022-08-05T00:57:59;41.76;40.57;42.74;;
67320;Laerm;57665;51.436;5.978;2022-08-05T00:58:09;41.76;40.47;43.05;;
67320;Laerm;57665;51.436;5.978;2022-08-05T00:58:20;41.70;40.00;43.10;;
67320;Laerm;57665;51.436;5.978;2022-08-05T00:58:30;41.66;40.38;43.08;;
67320;Laerm;57665;51.436;5.978;2022-08-05T00:58:40;41.67;40.52;42.94;;
67320;Laerm;57665;51.436;5.978;2022-08-05T00:58:51;41.71;40.04;43.00;;
67320;Laerm;57665;51.436;5.978;2022-08-05T00:59:01;41.68;40.55;43.20;;
67320;Laerm;57665;51.436;5.978;2022-08-05T00:59:11;41.69;40.45;42.88;;
67320;Laerm;57665;51.436;5.978;2022-08-05T00:59:21;41.83;40.21;43.30;;
67320;Laerm;57665;51.436;5.978;2022-08-05T00:59:31;41.78;40.66;42.89;;
67320;Laerm;57665;51.436;5.978;2022-08-05T00:59:41;41.81;40.42;42.87;;
67320;Laerm;57665;51.436;5.978;2022-08-05T00:59:52;41.82;40.40;43.08;;
67320;Laerm;57665;51.436;5.978;2022-08-05T01:00:03;41.74;40.28;43.14;;
67320;Laerm;57665;51.436;5.978;2022-08-05T01:00:13;41.96;40.69;44.08;;
67320;Laerm;57665;51.436;5.978;2022-08-05T01:00:23;41.78;40.42;42.98;;
67320;Laerm;57665;51.436;5.978;2022-08-05T01:00:33;41.71;40.59;42.77;;
67320;Laerm;57665;51.436;5.978;2022-08-05T01:00:44;41.68;40.48;43.05;;
67320;Laerm;57665;51.436;5.978;2022-08-05T01:00:54;41.78;40.30;43.25;;
67320;Laerm;57665;51.436;5.978;2022-08-05T01:01:05;41.69;40.25;42.81;;